sensor_id;sensor_type;location;lat;lon;timestamp;temperature;humidity
12156;DHT22;6141;49.092;8.516;2023-07-20T00:00:12;20.70;24.40
12156;DHT22;6141;49.092;8.516;2023-07-20T00:02:40;20.70;24.10
12156;DHT22;6141;49.092;8.516;2023-07-20T00:05:08;20.70;24.20
12156;DHT22;6141;49.092;8.516;2023-07-20T00:07:37;20.60;24.70
12156;DHT22;6141;49.092;8.516;2023-07-20T00:10:07;20.70;24.70
12156;DHT22;6141;49.092;8.516;2023-07-20T00:12:35;20.60;24.70
12156;DHT22;6141;49.092;8.516;2023-07-20T00:15:04;20.40;24.50
12156;DHT22;6141;49.092;8.516;2023-07-20T00:17:32;20.30;25.20
12156;DHT22;6141;49.092;8.516;2023-07-20T00:20:00;20.20;25.10
12156;DHT22;6141;49.092;8.516;2023-07-20T00:22:28;20.10;26.00
12156;DHT22;6141;49.092;8.516;2023-07-20T00:24:56;20.20;26.00
12156;DHT22;6141;49.092;8.516;2023-07-20T00:27:26;20.40;25.30
12156;DHT22;6141;49.092;8.516;2023-07-20T00:29:54;20.60;24.70
12156;DHT22;6141;49.092;8.516;2023-07-20T00:32:22;20.80;24.70
12156;DHT22;6141;49.092;8.516;2023-07-20T00:34:50;20.80;24.80
12156;DHT22;6141;49.092;8.516;2023-07-20T00:37:18;20.90;24.20
12156;DHT22;6141;49.092;8.516;2023-07-20T00:39:46;20.80;24.50
12156;DHT22;6141;49.092;8.516;2023-07-20T00:42:14;20.50;25.50
12156;DHT22;6141;49.092;8.516;2023-07-20T00:44:45;20.10;26.30
12156;DHT22;6141;49.092;8.516;2023-07-20T00:47:13;19.90;26.80
12156;DHT22;6141;49.092;8.516;2023-07-20T00:49:42;20.10;26.90
12156;DHT22;6141;49.092;8.516;2023-07-20T00:52:11;19.80;26.80
12156;DHT22;6141;49.092;8.516;2023-07-20T00:54:42;19.60;27.50
12156;DHT22;6141;49.092;8.516;2023-07-20T00:57:13;19.70;27.50
12156;DHT22;6141;49.092;8.516;2023-07-20T00:59:42;19.70;27.40
12156;DHT22;6141;49.092;8.516;2023-07-20T01:02:11;19.70;27.80
12156;DHT22;6141;49.092;8.516;2023-07-20T01:04:40;19.70;27.80
12156;DHT22;6141;49.092;8.516;2023-07-20T01:07:12;19.50;28.30
12156;DHT22;6141;49.092;8.516;2023-07-20T01:09:45;19.70;28.00
12156;DHT22;6141;49.092;8.516;2023-07-20T01:12:24;19.60;27.90
12156;DHT22;6141;49.092;8.516;2023-07-20T01:14:54;19.60;28.20
12156;DHT22;6141;49.092;8.516;2023-07-20T01:17:24;19.60;27.90
12156;DHT22;6141;49.092;8.516;2023-07-20T01:19:52;19.80;27.50
12156;DHT22;6141;49.092;8.516;2023-07-20T01:22:32;19.50;28.10
12156;DHT22;6141;49.092;8.516;2023-07-20T01:25:17;19.10;28.70
12156;DHT22;6141;49.092;8.516;2023-07-20T01:28:25;19.60;28.40
12156;DHT22;6141;49.092;8.516;2023-07-20T01:31:13;19.50;28.10
12156;DHT22;6141;49.092;8.516;2023-07-20T01:33:42;19.30;28.80
12156;DHT22;6141;49.092;8.516;2023-07-20T01:36:11;18.90;29.10
12156;DHT22;6141;49.092;8.516;2023-07-20T01:38:40;18.80;29.60
12156;DHT22;6141;49.092;8.516;2023-07-20T01:41:10;18.90;29.80
12156;DHT22;6141;49.092;8.516;2023-07-20T01:43:39;18.90;29.80
12156;DHT22;6141;49.092;8.516;2023-07-20T01:46:07;18.80;30.00
12156;DHT22;6141;49.092;8.516;2023-07-20T01:48:37;18.50;31.00
12156;DHT22;6141;49.092;8.516;2023-07-20T01:51:05;18.40;32.10
12156;DHT22;6141;49.092;8.516;2023-07-20T01:53:33;18.20;33.00
12156;DHT22;6141;49.092;8.516;2023-07-20T01:56:01;18.20;33.40
12156;DHT22;6141;49.092;8.516;2023-07-20T01:58:29;18.40;32.70
12156;DHT22;6141;49.092;8.516;2023-07-20T02:00:57;18.80;31.10
12156;DHT22;6141;49.092;8.516;2023-07-20T02:03:26;19.00;30.30
12156;DHT22;6141;49.092;8.516;2023-07-20T02:05:55;19.00;30.50
12156;DHT22;6141;49.092;8.516;2023-07-20T02:08:25;18.80;30.40
12156;DHT22;6141;49.092;8.516;2023-07-20T02:10:56;18.80;30.10
12156;DHT22;6141;49.092;8.516;2023-07-20T02:13:24;18.90;29.90
12156;DHT22;6141;49.092;8.516;2023-07-20T02:15:52;19.20;28.70
12156;DHT22;6141;49.092;8.516;2023-07-20T02:18:21;19.40;28.70
12156;DHT22;6141;49.092;8.516;2023-07-20T02:20:49;19.60;28.40
12156;DHT22;6141;49.092;8.516;2023-07-20T02:23:19;19.30;28.80
12156;DHT22;6141;49.092;8.516;2023-07-20T02:25:47;18.90;29.80
12156;DHT22;6141;49.092;8.516;2023-07-20T02:28:15;18.70;31.10
12156;DHT22;6141;49.092;8.516;2023-07-20T02:30:44;18.30;32.50
12156;DHT22;6141;49.092;8.516;2023-07-20T02:33:12;18.10;33.70
12156;DHT22;6141;49.092;8.516;2023-07-20T02:35:40;18.00;33.60
12156;DHT22;6141;49.092;8.516;2023-07-20T02:38:08;18.00;33.60
12156;DHT22;6141;49.092;8.516;2023-07-20T02:40:38;17.90;33.50
12156;DHT22;6141;49.092;8.516;2023-07-20T02:43:08;17.80;34.10
12156;DHT22;6141;49.092;8.516;2023-07-20T02:45:40;17.70;35.30
12156;DHT22;6141;49.092;8.516;2023-07-20T02:48:09;17.80;35.10
12156;DHT22;6141;49.092;8.516;2023-07-20T02:50:37;17.80;35.10
12156;DHT22;6141;49.092;8.516;2023-07-20T02:53:05;17.90;34.70
12156;DHT22;6141;49.092;8.516;2023-07-20T02:55:33;17.90;34.10
12156;DHT22;6141;49.092;8.516;2023-07-20T02:58:03;17.90;34.30
12156;DHT22;6141;49.092;8.516;2023-07-20T03:00:31;17.80;34.20
12156;DHT22;6141;49.092;8.516;2023-07-20T03:02:59;17.80;34.40
12156;DHT22;6141;49.092;8.516;2023-07-20T03:05:27;17.90;34.40
12156;DHT22;6141;49.092;8.516;2023-07-20T03:07:55;17.70;35.00
12156;DHT22;6141;49.092;8.516;2023-07-20T03:10:23;17.50;34.90
12156;DHT22;6141;49.092;8.516;2023-07-20T03:12:51;17.50;35.30
12156;DHT22;6141;49.092;8.516;2023-07-20T03:15:21;17.50;35.80
12156;DHT22;6141;49.092;8.516;2023-07-20T03:17:49;17.40;36.30
12156;DHT22;6141;49.092;8.516;2023-07-20T03:20:18;17.40;35.70
12156;DHT22;6141;49.092;8.516;2023-07-20T03:22:46;17.60;35.00
12156;DHT22;6141;49.092;8.516;2023-07-20T03:25:14;17.70;35.10
12156;DHT22;6141;49.092;8.516;2023-07-20T03:27:42;17.50;36.10
12156;DHT22;6141;49.092;8.516;2023-07-20T03:30:11;17.60;35.80
12156;DHT22;6141;49.092;8.516;2023-07-20T03:32:41;17.80;35.00
12156;DHT22;6141;49.092;8.516;2023-07-20T03:35:09;17.90;35.00
12156;DHT22;6141;49.092;8.516;2023-07-20T03:37:38;17.70;35.70
12156;DHT22;6141;49.092;8.516;2023-07-20T03:40:07;17.60;36.20
12156;DHT22;6141;49.092;8.516;2023-07-20T03:42:36;17.60;35.90
12156;DHT22;6141;49.092;8.516;2023-07-20T03:45:06;17.70;35.90
12156;DHT22;6141;49.092;8.516;2023-07-20T03:47:36;17.70;36.00
12156;DHT22;6141;49.092;8.516;2023-07-20T03:50:07;17.50;36.90
12156;DHT22;6141;49.092;8.516;2023-07-20T03:52:36;17.40;37.60
12156;DHT22;6141;49.092;8.516;2023-07-20T03:55:05;17.40;37.30
12156;DHT22;6141;49.092;8.516;2023-07-20T03:57:33;17.30;37.10
12156;DHT22;6141;49.092;8.516;2023-07-20T04:00:02;17.50;36.40
12156;DHT22;6141;49.092;8.516;2023-07-20T04:02:38;17.80;35.70
12156;DHT22;6141;49.092;8.516;2023-07-20T04:05:08;17.90;35.20
12156;DHT22;6141;49.092;8.516;2023-07-20T04:07:37;17.60;36.30
12156;DHT22;6141;49.092;8.516;2023-07-20T04:10:05;17.20;38.20
12156;DHT22;6141;49.092;8.516;2023-07-20T04:12:35;17.20;38.20
12156;DHT22;6141;49.092;8.516;2023-07-20T04:15:04;17.20;38.30
12156;DHT22;6141;49.092;8.516;2023-07-20T04:17:33;17.40;37.70
12156;DHT22;6141;49.092;8.516;2023-07-20T04:20:01;17.60;37.10
12156;DHT22;6141;49.092;8.516;2023-07-20T04:22:31;17.70;37.50
12156;DHT22;6141;49.092;8.516;2023-07-20T04:24:59;17.80;37.10
12156;DHT22;6141;49.092;8.516;2023-07-20T04:27:27;17.80;37.80
12156;DHT22;6141;49.092;8.516;2023-07-20T04:29:56;18.10;36.50
12156;DHT22;6141;49.092;8.516;2023-07-20T04:32:23;18.10;36.40
12156;DHT22;6141;49.092;8.516;2023-07-20T04:34:52;18.20;35.90
12156;DHT22;6141;49.092;8.516;2023-07-20T04:37:20;18.30;36.50
12156;DHT22;6141;49.092;8.516;2023-07-20T04:39:50;18.30;35.70
12156;DHT22;6141;49.092;8.516;2023-07-20T04:42:18;18.40;35.60
12156;DHT22;6141;49.092;8.516;2023-07-20T04:44:47;18.50;35.40
12156;DHT22;6141;49.092;8.516;2023-07-20T04:47:15;18.40;36.10
12156;DHT22;6141;49.092;8.516;2023-07-20T04:49:44;17.90;37.80
12156;DHT22;6141;49.092;8.516;2023-07-20T04:52:12;17.70;39.90
12156;DHT22;6141;49.092;8.516;2023-07-20T04:54:40;17.90;38.20
12156;DHT22;6141;49.092;8.516;2023-07-20T04:57:12;18.40;35.80
12156;DHT22;6141;49.092;8.516;2023-07-20T04:59:45;18.60;36.80
12156;DHT22;6141;49.092;8.516;2023-07-20T05:02:13;18.50;37.60
12156;DHT22;6141;49.092;8.516;2023-07-20T05:04:41;18.30;39.30
12156;DHT22;6141;49.092;8.516;2023-07-20T05:07:09;18.40;38.90
12156;DHT22;6141;49.092;8.516;2023-07-20T05:09:37;18.70;38.10
12156;DHT22;6141;49.092;8.516;2023-07-20T05:12:06;18.90;37.80
12156;DHT22;6141;49.092;8.516;2023-07-20T05:14:36;18.70;37.10
12156;DHT22;6141;49.092;8.516;2023-07-20T05:17:05;18.90;38.20
12156;DHT22;6141;49.092;8.516;2023-07-20T05:19:33;18.90;39.50
12156;DHT22;6141;49.092;8.516;2023-07-20T05:22:01;18.90;39.70
12156;DHT22;6141;49.092;8.516;2023-07-20T05:24:29;19.20;38.90
12156;DHT22;6141;49.092;8.516;2023-07-20T05:26:58;19.20;39.50
12156;DHT22;6141;49.092;8.516;2023-07-20T05:29:26;19.30;38.60
12156;DHT22;6141;49.092;8.516;2023-07-20T05:31:56;19.50;38.10
12156;DHT22;6141;49.092;8.516;2023-07-20T05:34:24;19.80;35.50
12156;DHT22;6141;49.092;8.516;2023-07-20T05:36:52;19.90;34.90
12156;DHT22;6141;49.092;8.516;2023-07-20T05:39:20;20.00;35.60
12156;DHT22;6141;49.092;8.516;2023-07-20T05:41:48;19.90;36.00
12156;DHT22;6141;49.092;8.516;2023-07-20T05:44:17;20.00;36.60
12156;DHT22;6141;49.092;8.516;2023-07-20T05:46:45;20.10;36.30
12156;DHT22;6141;49.092;8.516;2023-07-20T05:49:25;20.20;35.60
12156;DHT22;6141;49.092;8.516;2023-07-20T05:51:53;20.10;35.20
12156;DHT22;6141;49.092;8.516;2023-07-20T05:54:22;20.20;33.60
12156;DHT22;6141;49.092;8.516;2023-07-20T05:56:50;20.00;32.50
12156;DHT22;6141;49.092;8.516;2023-07-20T05:59:18;20.00;33.00
12156;DHT22;6141;49.092;8.516;2023-07-20T06:01:46;19.90;32.40
12156;DHT22;6141;49.092;8.516;2023-07-20T06:04:15;20.10;32.50
12156;DHT22;6141;49.092;8.516;2023-07-20T06:06:45;20.20;31.70
12156;DHT22;6141;49.092;8.516;2023-07-20T06:09:13;19.80;31.50
12156;DHT22;6141;49.092;8.516;2023-07-20T06:11:42;19.80;32.50
12156;DHT22;6141;49.092;8.516;2023-07-20T06:14:10;19.70;31.50
12156;DHT22;6141;49.092;8.516;2023-07-20T06:16:38;19.60;31.50
12156;DHT22;6141;49.092;8.516;2023-07-20T06:19:06;19.70;31.80
12156;DHT22;6141;49.092;8.516;2023-07-20T06:21:34;19.70;31.80
12156;DHT22;6141;49.092;8.516;2023-07-20T06:24:04;19.80;31.20
12156;DHT22;6141;49.092;8.516;2023-07-20T06:26:33;19.90;31.40
12156;DHT22;6141;49.092;8.516;2023-07-20T06:29:05;20.10;30.90
12156;DHT22;6141;49.092;8.516;2023-07-20T06:31:34;20.20;29.50
12156;DHT22;6141;49.092;8.516;2023-07-20T06:34:02;20.20;29.50
12156;DHT22;6141;49.092;8.516;2023-07-20T06:36:31;20.40;29.70
12156;DHT22;6141;49.092;8.516;2023-07-20T06:38:59;20.50;29.40
12156;DHT22;6141;49.092;8.516;2023-07-20T06:41:31;20.60;28.60
12156;DHT22;6141;49.092;8.516;2023-07-20T06:44:02;20.50;28.20
12156;DHT22;6141;49.092;8.516;2023-07-20T06:46:31;20.60;28.50
12156;DHT22;6141;49.092;8.516;2023-07-20T06:49:00;20.70;28.90
12156;DHT22;6141;49.092;8.516;2023-07-20T06:51:31;20.80;28.00
12156;DHT22;6141;49.092;8.516;2023-07-20T06:53:59;20.80;28.60
12156;DHT22;6141;49.092;8.516;2023-07-20T06:56:27;21.00;28.40
12156;DHT22;6141;49.092;8.516;2023-07-20T06:58:59;21.10;27.00
12156;DHT22;6141;49.092;8.516;2023-07-20T07:01:27;21.20;27.10
12156;DHT22;6141;49.092;8.516;2023-07-20T07:03:55;21.40;27.00
12156;DHT22;6141;49.092;8.516;2023-07-20T07:06:23;21.40;27.20
12156;DHT22;6141;49.092;8.516;2023-07-20T07:08:52;21.50;26.70
12156;DHT22;6141;49.092;8.516;2023-07-20T07:11:21;21.70;26.40
12156;DHT22;6141;49.092;8.516;2023-07-20T07:13:50;21.60;25.40
12156;DHT22;6141;49.092;8.516;2023-07-20T07:16:20;21.70;25.90
12156;DHT22;6141;49.092;8.516;2023-07-20T07:18:50;21.70;26.30
12156;DHT22;6141;49.092;8.516;2023-07-20T07:21:18;21.80;26.10
12156;DHT22;6141;49.092;8.516;2023-07-20T07:23:48;21.80;25.60
12156;DHT22;6141;49.092;8.516;2023-07-20T07:26:16;21.70;25.70
12156;DHT22;6141;49.092;8.516;2023-07-20T07:28:52;21.70;26.00
12156;DHT22;6141;49.092;8.516;2023-07-20T07:31:22;21.60;27.10
12156;DHT22;6141;49.092;8.516;2023-07-20T07:33:50;21.60;25.90
12156;DHT22;6141;49.092;8.516;2023-07-20T07:36:18;21.80;26.70
12156;DHT22;6141;49.092;8.516;2023-07-20T07:38:47;21.90;26.40
12156;DHT22;6141;49.092;8.516;2023-07-20T07:41:35;21.90;25.70
12156;DHT22;6141;49.092;8.516;2023-07-20T07:44:03;22.30;24.90
12156;DHT22;6141;49.092;8.516;2023-07-20T07:46:33;22.30;24.60
12156;DHT22;6141;49.092;8.516;2023-07-20T07:49:01;22.60;24.00
12156;DHT22;6141;49.092;8.516;2023-07-20T07:51:29;22.50;24.20
12156;DHT22;6141;49.092;8.516;2023-07-20T07:53:57;22.40;24.00
12156;DHT22;6141;49.092;8.516;2023-07-20T07:56:25;22.70;23.30
12156;DHT22;6141;49.092;8.516;2023-07-20T07:58:53;22.90;22.70
12156;DHT22;6141;49.092;8.516;2023-07-20T08:01:22;23.10;22.50
12156;DHT22;6141;49.092;8.516;2023-07-20T08:03:51;22.70;21.80
12156;DHT22;6141;49.092;8.516;2023-07-20T08:06:19;22.70;22.40
12156;DHT22;6141;49.092;8.516;2023-07-20T08:08:48;22.60;24.00
12156;DHT22;6141;49.092;8.516;2023-07-20T08:11:16;22.90;23.10
12156;DHT22;6141;49.092;8.516;2023-07-20T08:13:44;23.10;22.60
12156;DHT22;6141;49.092;8.516;2023-07-20T08:16:13;23.10;22.80
12156;DHT22;6141;49.092;8.516;2023-07-20T08:18:41;23.40;22.20
12156;DHT22;6141;49.092;8.516;2023-07-20T08:21:11;23.60;23.50
12156;DHT22;6141;49.092;8.516;2023-07-20T08:23:39;23.80;21.20
12156;DHT22;6141;49.092;8.516;2023-07-20T08:26:08;23.90;20.90
12156;DHT22;6141;49.092;8.516;2023-07-20T08:28:36;23.70;22.20
12156;DHT22;6141;49.092;8.516;2023-07-20T08:31:05;23.70;21.80
12156;DHT22;6141;49.092;8.516;2023-07-20T08:33:34;23.60;21.00
12156;DHT22;6141;49.092;8.516;2023-07-20T08:36:02;23.60;21.50
12156;DHT22;6141;49.092;8.516;2023-07-20T08:38:32;23.60;21.60
12156;DHT22;6141;49.092;8.516;2023-07-20T08:41:00;23.30;21.40
12156;DHT22;6141;49.092;8.516;2023-07-20T08:43:28;23.20;21.40
12156;DHT22;6141;49.092;8.516;2023-07-20T08:45:58;23.40;22.00
12156;DHT22;6141;49.092;8.516;2023-07-20T08:48:28;23.60;21.70
12156;DHT22;6141;49.092;8.516;2023-07-20T08:50:58;23.90;22.00
12156;DHT22;6141;49.092;8.516;2023-07-20T08:53:28;24.00;21.80
12156;DHT22;6141;49.092;8.516;2023-07-20T08:55:59;24.00;21.30
12156;DHT22;6141;49.092;8.516;2023-07-20T08:58:27;23.80;21.90
12156;DHT22;6141;49.092;8.516;2023-07-20T09:00:56;23.80;21.20
12156;DHT22;6141;49.092;8.516;2023-07-20T09:03:26;23.60;20.90
12156;DHT22;6141;49.092;8.516;2023-07-20T09:05:54;23.70;21.50
12156;DHT22;6141;49.092;8.516;2023-07-20T09:08:22;23.90;21.90
12156;DHT22;6141;49.092;8.516;2023-07-20T09:10:51;23.90;21.90
12156;DHT22;6141;49.092;8.516;2023-07-20T09:13:21;24.10;20.50
12156;DHT22;6141;49.092;8.516;2023-07-20T09:15:53;23.80;20.20
12156;DHT22;6141;49.092;8.516;2023-07-20T09:18:25;24.00;19.50
12156;DHT22;6141;49.092;8.516;2023-07-20T09:20:53;24.20;18.40
12156;DHT22;6141;49.092;8.516;2023-07-20T09:23:31;24.50;18.20
12156;DHT22;6141;49.092;8.516;2023-07-20T09:25:59;24.50;18.70
12156;DHT22;6141;49.092;8.516;2023-07-20T09:28:29;24.20;18.80
12156;DHT22;6141;49.092;8.516;2023-07-20T09:30:57;23.70;19.00
12156;DHT22;6141;49.092;8.516;2023-07-20T09:33:25;23.80;19.50
12156;DHT22;6141;49.092;8.516;2023-07-20T09:35:56;23.80;19.40
12156;DHT22;6141;49.092;8.516;2023-07-20T09:38:49;23.60;19.20
12156;DHT22;6141;49.092;8.516;2023-07-20T09:41:21;23.80;19.50
12156;DHT22;6141;49.092;8.516;2023-07-20T09:43:54;24.10;18.80
12156;DHT22;6141;49.092;8.516;2023-07-20T09:46:22;24.30;18.90
12156;DHT22;6141;49.092;8.516;2023-07-20T09:48:53;24.70;18.20
12156;DHT22;6141;49.092;8.516;2023-07-20T09:51:24;25.10;16.90
12156;DHT22;6141;49.092;8.516;2023-07-20T09:53:53;25.30;16.50
12156;DHT22;6141;49.092;8.516;2023-07-20T09:56:22;25.40;15.10
12156;DHT22;6141;49.092;8.516;2023-07-20T09:58:51;25.20;15.90
12156;DHT22;6141;49.092;8.516;2023-07-20T10:01:21;25.30;16.60
12156;DHT22;6141;49.092;8.516;2023-07-20T10:03:54;25.30;15.30
12156;DHT22;6141;49.092;8.516;2023-07-20T10:06:23;25.30;15.60
12156;DHT22;6141;49.092;8.516;2023-07-20T10:08:53;25.50;16.70
12156;DHT22;6141;49.092;8.516;2023-07-20T10:11:24;25.20;16.00
12156;DHT22;6141;49.092;8.516;2023-07-20T10:13:53;25.40;14.40
12156;DHT22;6141;49.092;8.516;2023-07-20T10:16:27;25.50;14.70
12156;DHT22;6141;49.092;8.516;2023-07-20T10:19:03;25.50;12.30
12156;DHT22;6141;49.092;8.516;2023-07-20T10:21:48;25.60;14.00
12156;DHT22;6141;49.092;8.516;2023-07-20T10:24:23;25.40;12.30
12156;DHT22;6141;49.092;8.516;2023-07-20T10:26:51;25.40;13.30
12156;DHT22;6141;49.092;8.516;2023-07-20T10:29:20;25.50;12.20
12156;DHT22;6141;49.092;8.516;2023-07-20T10:31:50;25.80;14.10
12156;DHT22;6141;49.092;8.516;2023-07-20T10:34:22;25.70;14.50
12156;DHT22;6141;49.092;8.516;2023-07-20T10:36:50;25.80;13.70
12156;DHT22;6141;49.092;8.516;2023-07-20T10:39:22;26.10;13.50
12156;DHT22;6141;49.092;8.516;2023-07-20T10:42:00;26.30;12.70
12156;DHT22;6141;49.092;8.516;2023-07-20T10:44:29;26.70;11.70
12156;DHT22;6141;49.092;8.516;2023-07-20T10:47:03;26.70;10.60
12156;DHT22;6141;49.092;8.516;2023-07-20T10:49:33;26.50;10.50
12156;DHT22;6141;49.092;8.516;2023-07-20T10:52:05;26.20;10.90
12156;DHT22;6141;49.092;8.516;2023-07-20T10:54:48;26.20;11.20
12156;DHT22;6141;49.092;8.516;2023-07-20T10:57:27;26.20;11.10
12156;DHT22;6141;49.092;8.516;2023-07-20T11:00:08;26.30;11.50
12156;DHT22;6141;49.092;8.516;2023-07-20T11:02:49;26.20;9.90
12156;DHT22;6141;49.092;8.516;2023-07-20T11:05:32;25.90;12.40
12156;DHT22;6141;49.092;8.516;2023-07-20T11:08:04;25.30;12.10
12156;DHT22;6141;49.092;8.516;2023-07-20T11:10:32;25.40;13.40
12156;DHT22;6141;49.092;8.516;2023-07-20T11:13:17;25.60;14.50
12156;DHT22;6141;49.092;8.516;2023-07-20T11:15:46;25.70;12.60
12156;DHT22;6141;49.092;8.516;2023-07-20T11:18:16;25.90;12.40
12156;DHT22;6141;49.092;8.516;2023-07-20T11:20:50;25.90;12.40
12156;DHT22;6141;49.092;8.516;2023-07-20T11:23:19;26.20;14.30
12156;DHT22;6141;49.092;8.516;2023-07-20T11:25:48;26.20;12.60
12156;DHT22;6141;49.092;8.516;2023-07-20T11:28:16;26.40;11.60
12156;DHT22;6141;49.092;8.516;2023-07-20T11:30:44;26.50;11.40
12156;DHT22;6141;49.092;8.516;2023-07-20T11:33:13;26.60;9.90
12156;DHT22;6141;49.092;8.516;2023-07-20T11:35:44;26.60;11.90
12156;DHT22;6141;49.092;8.516;2023-07-20T11:38:13;26.90;12.00
12156;DHT22;6141;49.092;8.516;2023-07-20T11:40:45;27.10;8.60
12156;DHT22;6141;49.092;8.516;2023-07-20T11:43:13;27.10;7.50
12156;DHT22;6141;49.092;8.516;2023-07-20T11:45:45;27.10;6.90
12156;DHT22;6141;49.092;8.516;2023-07-20T11:48:15;27.30;7.70
12156;DHT22;6141;49.092;8.516;2023-07-20T11:50:45;27.30;10.50
12156;DHT22;6141;49.092;8.516;2023-07-20T11:53:14;26.70;9.90
12156;DHT22;6141;49.092;8.516;2023-07-20T11:55:44;26.80;11.20
12156;DHT22;6141;49.092;8.516;2023-07-20T11:58:13;27.00;10.90
12156;DHT22;6141;49.092;8.516;2023-07-20T12:00:44;27.30;11.70
12156;DHT22;6141;49.092;8.516;2023-07-20T12:03:12;27.20;10.70
12156;DHT22;6141;49.092;8.516;2023-07-20T12:05:40;27.40;8.50
12156;DHT22;6141;49.092;8.516;2023-07-20T12:08:29;27.40;8.60
12156;DHT22;6141;49.092;8.516;2023-07-20T12:10:57;27.30;9.60
12156;DHT22;6141;49.092;8.516;2023-07-20T12:13:36;27.30;10.00
12156;DHT22;6141;49.092;8.516;2023-07-20T12:16:09;27.40;9.20
12156;DHT22;6141;49.092;8.516;2023-07-20T12:18:38;27.50;8.90
12156;DHT22;6141;49.092;8.516;2023-07-20T12:21:07;27.60;7.50
12156;DHT22;6141;49.092;8.516;2023-07-20T12:23:38;27.60;7.90
12156;DHT22;6141;49.092;8.516;2023-07-20T12:26:07;27.80;7.90
12156;DHT22;6141;49.092;8.516;2023-07-20T12:28:39;27.50;7.30
12156;DHT22;6141;49.092;8.516;2023-07-20T12:31:08;27.60;6.90
12156;DHT22;6141;49.092;8.516;2023-07-20T12:33:37;27.60;6.50
12156;DHT22;6141;49.092;8.516;2023-07-20T12:36:06;27.80;5.60
12156;DHT22;6141;49.092;8.516;2023-07-20T12:38:34;27.60;6.70
12156;DHT22;6141;49.092;8.516;2023-07-20T12:41:03;27.50;6.00
12156;DHT22;6141;49.092;8.516;2023-07-20T12:43:31;27.70;8.00
12156;DHT22;6141;49.092;8.516;2023-07-20T12:46:00;27.70;5.50
12156;DHT22;6141;49.092;8.516;2023-07-20T12:48:28;28.00;6.90
12156;DHT22;6141;49.092;8.516;2023-07-20T12:50:56;27.80;5.00
12156;DHT22;6141;49.092;8.516;2023-07-20T12:53:25;27.50;5.70
12156;DHT22;6141;49.092;8.516;2023-07-20T12:55:53;27.70;7.60
12156;DHT22;6141;49.092;8.516;2023-07-20T12:58:23;27.80;7.50
12156;DHT22;6141;49.092;8.516;2023-07-20T13:00:51;28.00;8.10
12156;DHT22;6141;49.092;8.516;2023-07-20T13:03:19;27.80;7.20
12156;DHT22;6141;49.092;8.516;2023-07-20T13:05:51;27.90;6.10
12156;DHT22;6141;49.092;8.516;2023-07-20T13:08:22;28.00;9.60
12156;DHT22;6141;49.092;8.516;2023-07-20T13:10:52;27.90;6.20
12156;DHT22;6141;49.092;8.516;2023-07-20T13:13:20;28.20;8.30
12156;DHT22;6141;49.092;8.516;2023-07-20T13:15:49;28.30;5.00
12156;DHT22;6141;49.092;8.516;2023-07-20T13:18:18;28.20;5.00
12156;DHT22;6141;49.092;8.516;2023-07-20T13:20:46;28.00;6.50
12156;DHT22;6141;49.092;8.516;2023-07-20T13:23:14;28.00;5.30
12156;DHT22;6141;49.092;8.516;2023-07-20T13:25:42;28.30;5.90
12156;DHT22;6141;49.092;8.516;2023-07-20T13:28:10;28.30;4.90
12156;DHT22;6141;49.092;8.516;2023-07-20T13:30:39;28.20;6.20
12156;DHT22;6141;49.092;8.516;2023-07-20T13:33:09;28.30;6.20
12156;DHT22;6141;49.092;8.516;2023-07-20T13:35:43;28.50;5.20
12156;DHT22;6141;49.092;8.516;2023-07-20T13:38:14;28.40;5.70
12156;DHT22;6141;49.092;8.516;2023-07-20T13:40:44;28.50;5.30
12156;DHT22;6141;49.092;8.516;2023-07-20T13:43:12;28.60;5.20
12156;DHT22;6141;49.092;8.516;2023-07-20T13:45:40;28.40;5.70
12156;DHT22;6141;49.092;8.516;2023-07-20T13:48:10;28.50;7.20
12156;DHT22;6141;49.092;8.516;2023-07-20T13:50:38;28.40;6.10
12156;DHT22;6141;49.092;8.516;2023-07-20T13:53:25;28.40;5.40
12156;DHT22;6141;49.092;8.516;2023-07-20T13:55:57;28.40;3.70
12156;DHT22;6141;49.092;8.516;2023-07-20T13:58:28;28.50;4.30
12156;DHT22;6141;49.092;8.516;2023-07-20T14:00:57;28.60;5.60
12156;DHT22;6141;49.092;8.516;2023-07-20T14:03:27;28.90;5.80
12156;DHT22;6141;49.092;8.516;2023-07-20T14:05:56;28.90;7.50
12156;DHT22;6141;49.092;8.516;2023-07-20T14:08:27;28.30;4.80
12156;DHT22;6141;49.092;8.516;2023-07-20T14:10:57;28.30;4.60
12156;DHT22;6141;49.092;8.516;2023-07-20T14:13:28;28.00;3.20
12156;DHT22;6141;49.092;8.516;2023-07-20T14:16:13;28.10;5.20
12156;DHT22;6141;49.092;8.516;2023-07-20T14:18:42;28.00;3.90
12156;DHT22;6141;49.092;8.516;2023-07-20T14:21:16;27.80;4.10
12156;DHT22;6141;49.092;8.516;2023-07-20T14:23:45;28.10;4.80
12156;DHT22;6141;49.092;8.516;2023-07-20T14:26:13;28.20;4.40
12156;DHT22;6141;49.092;8.516;2023-07-20T14:28:42;28.10;3.90
12156;DHT22;6141;49.092;8.516;2023-07-20T14:31:10;28.00;4.20
12156;DHT22;6141;49.092;8.516;2023-07-20T14:33:38;28.10;3.20
12156;DHT22;6141;49.092;8.516;2023-07-20T14:36:08;28.20;4.10
12156;DHT22;6141;49.092;8.516;2023-07-20T14:38:37;27.90;2.60
12156;DHT22;6141;49.092;8.516;2023-07-20T14:41:07;28.00;3.90
12156;DHT22;6141;49.092;8.516;2023-07-20T14:43:36;28.10;3.90
12156;DHT22;6141;49.092;8.516;2023-07-20T14:46:05;28.40;3.80
12156;DHT22;6141;49.092;8.516;2023-07-20T14:48:33;28.50;2.70
12156;DHT22;6141;49.092;8.516;2023-07-20T14:51:01;28.40;4.10
12156;DHT22;6141;49.092;8.516;2023-07-20T14:53:33;28.50;4.00
12156;DHT22;6141;49.092;8.516;2023-07-20T14:56:03;28.40;3.70
12156;DHT22;6141;49.092;8.516;2023-07-20T14:58:31;28.00;3.30
12156;DHT22;6141;49.092;8.516;2023-07-20T15:01:02;27.90;3.90
12156;DHT22;6141;49.092;8.516;2023-07-20T15:03:31;28.10;5.30
12156;DHT22;6141;49.092;8.516;2023-07-20T15:05:59;28.10;4.00
12156;DHT22;6141;49.092;8.516;2023-07-20T15:08:27;27.90;4.20
12156;DHT22;6141;49.092;8.516;2023-07-20T15:10:57;27.70;3.10
12156;DHT22;6141;49.092;8.516;2023-07-20T15:13:25;28.00;5.30
12156;DHT22;6141;49.092;8.516;2023-07-20T15:15:53;28.10;4.20
12156;DHT22;6141;49.092;8.516;2023-07-20T15:18:22;27.90;2.30
12156;DHT22;6141;49.092;8.516;2023-07-20T15:21:07;27.90;3.80
12156;DHT22;6141;49.092;8.516;2023-07-20T15:23:35;27.90;3.00
12156;DHT22;6141;49.092;8.516;2023-07-20T15:26:05;28.00;2.80
12156;DHT22;6141;49.092;8.516;2023-07-20T15:28:33;27.90;2.80
12156;DHT22;6141;49.092;8.516;2023-07-20T15:31:03;27.80;3.10
12156;DHT22;6141;49.092;8.516;2023-07-20T15:33:31;27.70;3.90
12156;DHT22;6141;49.092;8.516;2023-07-20T15:36:00;27.70;4.20
12156;DHT22;6141;49.092;8.516;2023-07-20T15:38:28;28.00;5.00
12156;DHT22;6141;49.092;8.516;2023-07-20T15:40:56;28.00;4.00
12156;DHT22;6141;49.092;8.516;2023-07-20T15:43:29;28.00;4.20
12156;DHT22;6141;49.092;8.516;2023-07-20T15:46:04;27.80;3.40
12156;DHT22;6141;49.092;8.516;2023-07-20T15:48:38;27.50;2.90
12156;DHT22;6141;49.092;8.516;2023-07-20T15:51:08;27.60;4.10
12156;DHT22;6141;49.092;8.516;2023-07-20T15:53:37;27.90;5.60
12156;DHT22;6141;49.092;8.516;2023-07-20T15:56:05;28.00;3.00
12156;DHT22;6141;49.092;8.516;2023-07-20T15:58:35;27.90;3.30
12156;DHT22;6141;49.092;8.516;2023-07-20T16:01:03;28.10;3.70
12156;DHT22;6141;49.092;8.516;2023-07-20T16:03:32;28.00;4.70
12156;DHT22;6141;49.092;8.516;2023-07-20T16:06:04;27.90;3.30